Time;durP1;ratioP1;P1;durP2;ratioP2;P2;SDS_P1;SDS_P2;PMS_P1;PMS_P2;Temp;Humidity;BMP_temperature;BMP_pressure;BME280_temperature;BME280_humidity;BME280_pressure;Samples;Min_cycle;Max_cycle;Signal;HPM_P1;HPM_P2
2020/12/13 00:02:13;;;;;;;63.27;30.70;;;;;;;;;;5098965;27;20617;-72
2020/12/13 00:04:52;;;;;;;60.03;28.53;;;;;;;;;;5097640;27;20756;-73
2020/12/13 00:07:25;;;;;;;63.73;31.33;;;;;;;;;;5098397;27;20448;-73
2020/12/13 00:09:52;;;;;;;62.13;28.50;;;;;;;;;;5098849;27;20444;-73
2020/12/13 00:12:21;;;;;;;56.60;28.73;;;;;;;;;;5111342;27;20515;-72
2020/12/13 00:14:49;;;;;;;61.93;29.67;;;;;;;;;;5101844;27;20472;-73
2020/12/13 00:17:25;;;;;;;56.57;27.67;;;;;;;;;;5100786;27;20452;-72
2020/12/13 00:19:53;;;;;;;58.23;28.67;;;;;;;;;;5097427;27;20448;-73
2020/12/13 00:22:22;;;;;;;53.90;27.10;;;;;;;;;;5097828;27;20811;-73
2020/12/13 00:24:51;;;;;;;64.87;29.77;;;;;;;;;;5103798;27;20934;-73
2020/12/13 00:27:21;;;;;;;59.97;28.20;;;;;;;;;;5118160;27;20447;-73
2020/12/13 00:29:53;;;;;;;68.50;29.47;;;;;;;;;;5102701;27;20459;-73
2020/12/13 00:32:23;;;;;;;54.90;26.07;;;;;;;;;;5113607;27;20458;-74
2020/12/13 00:34:52;;;;;;;62.67;28.43;;;;;;;;;;5098528;27;20538;-72
2020/12/13 00:37:20;;;;;;;53.83;29.33;;;;;;;;;;5102063;27;20452;-73
2020/12/13 00:39:52;;;;;;;64.03;27.80;;;;;;;;;;5117475;27;20558;-73
2020/12/13 00:42:23;;;;;;;56.40;27.30;;;;;;;;;;5111335;27;20471;-72
2020/12/13 00:44:56;;;;;;;56.27;25.90;;;;;;;;;;5099000;27;20527;-72
2020/12/13 00:47:30;;;;;;;59.20;27.27;;;;;;;;;;5097123;27;20456;-73
2020/12/13 00:50:05;;;;;;;53.47;27.83;;;;;;;;;;5097130;27;20451;-72
2020/12/13 00:52:34;;;;;;;57.63;27.57;;;;;;;;;;5096536;27;20490;-72
2020/12/13 00:55:04;;;;;;;65.63;27.60;;;;;;;;;;5097674;27;20463;-72
2020/12/13 00:57:33;;;;;;;53.17;27.53;;;;;;;;;;5097942;27;20856;-74
2020/12/13 01:00:10;;;;;;;54.60;26.37;;;;;;;;;;5098187;27;20811;-71
2020/12/13 01:02:38;;;;;;;57.87;26.80;;;;;;;;;;5114464;27;20463;-72
2020/12/13 01:05:05;;;;;;;56.10;27.90;;;;;;;;;;5114388;27;20553;-72
2020/12/13 01:07:38;;;;;;;62.50;27.67;;;;;;;;;;5117311;27;20878;-73
2020/12/13 01:10:05;;;;;;;59.73;26.90;;;;;;;;;;5117694;27;20455;-72
2020/12/13 01:12:36;;;;;;;48.03;26.20;;;;;;;;;;5117822;27;20469;-72
2020/12/13 01:15:05;;;;;;;54.47;28.20;;;;;;;;;;5116827;27;20878;-73
2020/12/13 01:17:32;;;;;;;65.80;27.57;;;;;;;;;;5117028;27;20478;-72
2020/12/13 01:20:02;;;;;;;62.40;28.90;;;;;;;;;;5116086;27;20462;-73
2020/12/13 01:22:29;;;;;;;69.73;29.57;;;;;;;;;;5113681;27;20451;-73
2020/12/13 01:24:57;;;;;;;50.50;24.80;;;;;;;;;;5115869;27;20911;-74
2020/12/13 01:27:48;;;;;;;61.47;26.10;;;;;;;;;;5111777;27;20803;-74
2020/12/13 01:30:21;;;;;;;64.50;27.67;;;;;;;;;;5115379;27;20484;-74
2020/12/13 01:32:51;;;;;;;55.03;25.90;;;;;;;;;;5115142;27;20458;-74
2020/12/13 01:35:19;;;;;;;57.87;27.00;;;;;;;;;;5116300;27;20439;-74
2020/12/13 01:37:46;;;;;;;54.27;25.90;;;;;;;;;;5117260;27;20520;-74
2020/12/13 01:40:13;;;;;;;54.13;25.63;;;;;;;;;;5116706;27;20463;-74
2020/12/13 01:42:41;;;;;;;58.07;26.10;;;;;;;;;;5116609;27;20536;-75
2020/12/13 01:45:08;;;;;;;63.30;26.50;;;;;;;;;;5117347;27;20640;-74
2020/12/13 01:47:37;;;;;;;61.63;26.93;;;;;;;;;;5119955;27;20549;-75
2020/12/13 01:50:10;;;;;;;55.63;26.67;;;;;;;;;;5120242;27;20455;-74
2020/12/13 01:52:47;;;;;;;60.40;25.87;;;;;;;;;;5120648;27;20459;-74
2020/12/13 01:55:17;;;;;;;53.40;25.17;;;;;;;;;;5120105;27;20454;-75
2020/12/13 01:57:46;;;;;;;54.53;26.03;;;;;;;;;;5101216;27;20470;-74
2020/12/13 02:00:16;;;;;;;59.00;27.27;;;;;;;;;;5103965;27;20454;-73
2020/12/13 02:03:04;;;;;;;58.93;26.50;;;;;;;;;;5121238;27;20546;-72
2020/12/13 02:05:41;;;;;;;60.43;27.23;;;;;;;;;;5120351;27;21084;-73
2020/12/13 02:08:17;;;;;;;63.87;29.13;;;;;;;;;;5121068;27;20724;-73
2020/12/13 02:10:54;;;;;;;57.20;27.43;;;;;;;;;;5112344;27;20458;-72
2020/12/13 02:13:35;;;;;;;52.20;25.60;;;;;;;;;;5119663;27;20496;-72
2020/12/13 02:16:04;;;;;;;60.27;26.80;;;;;;;;;;5119326;27;20469;-73
2020/12/13 02:18:31;;;;;;;52.43;25.70;;;;;;;;;;5108280;27;20604;-75
2020/12/13 02:20:58;;;;;;;49.70;25.00;;;;;;;;;;5099497;27;20448;-74
2020/12/13 02:23:26;;;;;;;59.63;26.93;;;;;;;;;;5100460;27;20460;-71
2020/12/13 02:25:57;;;;;;;52.30;26.93;;;;;;;;;;5099328;27;20812;-74
2020/12/13 02:28:26;;;;;;;67.23;29.77;;;;;;;;;;5100108;27;20459;-74
2020/12/13 02:30:54;;;;;;;57.43;25.50;;;;;;;;;;5111800;27;20451;-72
2020/12/13 02:33:33;;;;;;;55.87;26.00;;;;;;;;;;5119306;27;20447;-72
2020/12/13 02:36:02;;;;;;;57.27;27.50;;;;;;;;;;5108055;27;20499;-71
2020/12/13 02:38:40;;;;;;;55.27;25.33;;;;;;;;;;5099414;27;20449;-73
2020/12/13 02:41:07;;;;;;;50.90;24.83;;;;;;;;;;5113931;27;20538;-74
2020/12/13 02:43:34;;;;;;;57.53;25.80;;;;;;;;;;5119779;27;20757;-73
2020/12/13 02:46:01;;;;;;;52.87;24.37;;;;;;;;;;5119610;27;20491;-74
2020/12/13 02:48:28;;;;;;;53.73;25.30;;;;;;;;;;5119368;27;20451;-74
2020/12/13 02:50:56;;;;;;;56.93;25.67;;;;;;;;;;5106906;27;20483;-73
2020/12/13 02:53:23;;;;;;;60.60;25.33;;;;;;;;;;5099402;27;20475;-74
2020/12/13 02:55:51;;;;;;;54.20;25.73;;;;;;;;;;5115498;27;20470;-74
2020/12/13 02:58:18;;;;;;;56.63;25.50;;;;;;;;;;5105912;27;20475;-75
2020/12/13 03:00:46;;;;;;;62.20;25.60;;;;;;;;;;5111946;27;20454;-74
2020/12/13 03:03:13;;;;;;;57.43;29.30;;;;;;;;;;5118997;27;20901;-74
2020/12/13 03:05:40;;;;;;;57.67;24.97;;;;;;;;;;5107826;27;20491;-75
2020/12/13 03:08:08;;;;;;;55.27;25.33;;;;;;;;;;5099021;27;20483;-74
2020/12/13 03:10:35;;;;;;;57.13;25.07;;;;;;;;;;5099124;27;20452;-75
2020/12/13 03:13:02;;;;;;;59.67;23.70;;;;;;;;;;5099091;27;20559;-74
2020/12/13 03:15:29;;;;;;;48.13;23.40;;;;;;;;;;5100184;27;20863;-75
2020/12/13 03:17:57;;;;;;;62.17;26.27;;;;;;;;;;5119595;27;20890;-74
2020/12/13 03:20:24;;;;;;;48.43;23.73;;;;;;;;;;5103984;27;20486;-74
2020/12/13 03:22:51;;;;;;;55.43;24.10;;;;;;;;;;5099298;27;20464;-74
2020/12/13 03:25:18;;;;;;;55.43;26.63;;;;;;;;;;5100053;27;20480;-74
2020/12/13 03:27:45;;;;;;;56.80;25.73;;;;;;;;;;5100030;27;20452;-74
2020/12/13 03:30:13;;;;;;;70.20;26.90;;;;;;;;;;5098611;27;20841;-74
2020/12/13 03:32:40;;;;;;;58.33;25.23;;;;;;;;;;5116258;27;20467;-74
2020/12/13 03:35:10;;;;;;;63.17;26.20;;;;;;;;;;5119647;27;20454;-75
2020/12/13 03:37:37;;;;;;;64.80;23.83;;;;;;;;;;5119918;27;20459;-73
2020/12/13 03:40:06;;;;;;;59.20;26.37;;;;;;;;;;5099674;27;20930;-73
2020/12/13 03:42:33;;;;;;;49.83;23.40;;;;;;;;;;5098612;27;20460;-73
2020/12/13 03:45:02;;;;;;;59.13;25.17;;;;;;;;;;5102858;27;20932;-73
2020/12/13 03:47:30;;;;;;;63.37;24.60;;;;;;;;;;5119094;27;20456;-73
2020/12/13 03:49:57;;;;;;;55.87;25.40;;;;;;;;;;5119220;27;20520;-74
2020/12/13 03:52:24;;;;;;;55.10;25.10;;;;;;;;;;5118992;27;20459;-73
2020/12/13 03:54:51;;;;;;;54.40;23.60;;;;;;;;;;5119481;27;20739;-74
2020/12/13 03:57:18;;;;;;;64.00;24.23;;;;;;;;;;5118485;27;20745;-73
2020/12/13 03:59:45;;;;;;;62.87;25.80;;;;;;;;;;5110985;27;20731;-73
2020/12/13 04:02:12;;;;;;;58.17;25.93;;;;;;;;;;5099108;27;20455;-73
2020/12/13 04:04:40;;;;;;;53.23;23.33;;;;;;;;;;5098154;27;20492;-73
2020/12/13 04:07:08;;;;;;;65.13;27.83;;;;;;;;;;5098433;27;20471;-74
2020/12/13 04:09:35;;;;;;;60.03;28.00;;;;;;;;;;5097382;27;20483;-74
2020/12/13 04:12:02;;;;;;;59.17;26.37;;;;;;;;;;5098019;27;20892;-74
2020/12/13 04:14:29;;;;;;;56.00;24.63;;;;;;;;;;5097953;27;20459;-74
2020/12/13 04:16:56;;;;;;;62.43;24.80;;;;;;;;;;5097510;28;20460;-74
2020/12/13 04:19:23;;;;;;;58.23;26.57;;;;;;;;;;5098111;27;20448;-74
2020/12/13 04:21:51;;;;;;;60.20;24.00;;;;;;;;;;5098651;27;20551;-74
2020/12/13 04:24:18;;;;;;;58.47;25.03;;;;;;;;;;5097858;27;20484;-74
2020/12/13 04:26:51;;;;;;;61.90;25.17;;;;;;;;;;5097932;27;20456;-74
2020/12/13 04:29:18;;;;;;;53.27;26.13;;;;;;;;;;5097454;27;20456;-74
2020/12/13 04:31:45;;;;;;;57.27;25.97;;;;;;;;;;5097496;27;20524;-74
2020/12/13 04:34:12;;;;;;;59.30;25.13;;;;;;;;;;5097817;27;20524;-74
2020/12/13 04:36:39;;;;;;;55.17;25.03;;;;;;;;;;5097662;27;20463;-74
2020/12/13 04:39:07;;;;;;;56.77;25.97;;;;;;;;;;5098054;27;20463;-73
2020/12/13 04:41:35;;;;;;;55.83;25.33;;;;;;;;;;5097807;27;20844;-74
2020/12/13 04:44:02;;;;;;;62.07;25.83;;;;;;;;;;5097124;27;20892;-74
2020/12/13 04:46:30;;;;;;;69.47;26.07;;;;;;;;;;5098390;27;20470;-74
2020/12/13 04:48:58;;;;;;;61.30;26.20;;;;;;;;;;5097525;27;20437;-74
2020/12/13 04:51:28;;;;;;;57.30;25.90;;;;;;;;;;5097272;27;20536;-74
2020/12/13 04:54:04;;;;;;;52.83;26.00;;;;;;;;;;5097319;27;20448;-73
2020/12/13 04:56:33;;;;;;;62.43;26.00;;;;;;;;;;5098024;27;20871;-73
2020/12/13 04:59:02;;;;;;;58.30;26.50;;;;;;;;;;5097320;27;20555;-73
2020/12/13 05:01:29;;;;;;;56.07;26.70;;;;;;;;;;5097451;27;20444;-73
2020/12/13 05:03:56;;;;;;;61.20;24.17;;;;;;;;;;5097296;27;20467;-74
2020/12/13 05:06:28;;;;;;;65.70;24.80;;;;;;;;;;5097092;27;20456;-74
2020/12/13 05:08:55;;;;;;;66.17;30.00;;;;;;;;;;5097996;27;20459;-73
2020/12/13 05:11:25;;;;;;;65.37;26.30;;;;;;;;;;5097774;27;20480;-73
2020/12/13 05:13:54;;;;;;;65.87;27.93;;;;;;;;;;5097007;27;20452;-73
2020/12/13 05:16:22;;;;;;;52.90;26.53;;;;;;;;;;5097576;27;20466;-73
2020/12/13 05:18:49;;;;;;;50.00;25.57;;;;;;;;;;5097601;27;20460;-73
2020/12/13 05:21:18;;;;;;;65.90;27.53;;;;;;;;;;5100317;27;20444;-73
2020/12/13 05:23:46;;;;;;;67.90;28.03;;;;;;;;;;5100804;27;20456;-73
2020/12/13 05:26:15;;;;;;;63.63;27.80;;;;;;;;;;5100777;27;20494;-73
2020/12/13 05:28:46;;;;;;;66.40;28.80;;;;;;;;;;5100660;27;20460;-74
2020/12/13 05:31:15;;;;;;;58.13;26.53;;;;;;;;;;5101042;27;20476;-74
2020/12/13 05:33:45;;;;;;;59.07;26.00;;;;;;;;;;5101114;27;20474;-74
2020/12/13 05:36:14;;;;;;;69.93;28.67;;;;;;;;;;5100657;27;20687;-74
2020/12/13 05:38:42;;;;;;;62.73;27.20;;;;;;;;;;5100012;27;20467;-74
2020/12/13 05:41:10;;;;;;;54.77;24.80;;;;;;;;;;5099894;27;20464;-73
2020/12/13 05:43:43;;;;;;;62.57;27.37;;;;;;;;;;5100072;27;20456;-74
2020/12/13 05:51:41;;;;;;;61.20;26.00;;;;;;;;;;5096819;27;20444;-74
2020/12/13 05:54:11;;;;;;;67.13;27.43;;;;;;;;;;5100828;27;20552;-74
2020/12/13 05:56:39;;;;;;;56.57;26.77;;;;;;;;;;5100084;27;20468;-74
2020/12/13 05:59:08;;;;;;;61.10;28.47;;;;;;;;;;5099254;27;20789;-74
2020/12/13 06:01:36;;;;;;;65.03;29.77;;;;;;;;;;5099981;27;20456;-74
2020/12/13 06:04:08;;;;;;;68.63;27.37;;;;;;;;;;5100072;27;20832;-74
2020/12/13 06:06:41;;;;;;;70.07;28.37;;;;;;;;;;5100309;27;20517;-74
2020/12/13 06:09:12;;;;;;;64.47;29.20;;;;;;;;;;5099741;27;20467;-74
2020/12/13 06:11:41;;;;;;;60.73;27.37;;;;;;;;;;5100025;27;20533;-74
2020/12/13 06:14:10;;;;;;;60.87;28.20;;;;;;;;;;5100412;27;20456;-74
2020/12/13 06:16:37;;;;;;;57.47;28.03;;;;;;;;;;5100233;27;20440;-74
2020/12/13 06:19:06;;;;;;;62.70;28.93;;;;;;;;;;5099478;27;20458;-74
2020/12/13 06:21:34;;;;;;;67.50;29.00;;;;;;;;;;5099617;27;20448;-73
2020/12/13 06:24:02;;;;;;;60.83;27.77;;;;;;;;;;5099673;27;20467;-74
2020/12/13 06:26:30;;;;;;;70.20;29.57;;;;;;;;;;5099533;27;20448;-74
2020/12/13 06:28:57;;;;;;;65.80;28.40;;;;;;;;;;5099991;27;20483;-73
2020/12/13 06:31:24;;;;;;;67.33;29.50;;;;;;;;;;5098945;27;20451;-74
2020/12/13 06:33:52;;;;;;;64.57;28.23;;;;;;;;;;5099606;27;20741;-74
2020/12/13 06:36:24;;;;;;;62.30;29.67;;;;;;;;;;5099525;27;20867;-73
2020/12/13 06:38:53;;;;;;;56.20;25.83;;;;;;;;;;5099052;27;20512;-74
2020/12/13 06:41:21;;;;;;;54.40;25.03;;;;;;;;;;5100764;27;20462;-74
2020/12/13 06:43:56;;;;;;;65.60;29.17;;;;;;;;;;5099749;27;20451;-73
2020/12/13 06:46:24;;;;;;;69.67;27.63;;;;;;;;;;5099352;27;20495;-74
2020/12/13 06:48:52;;;;;;;67.80;29.60;;;;;;;;;;5099663;27;20466;-74
2020/12/13 06:51:26;;;;;;;68.63;27.57;;;;;;;;;;5100887;27;20462;-75
2020/12/13 06:53:54;;;;;;;63.23;29.10;;;;;;;;;;5118068;27;20455;-73
2020/12/13 06:56:22;;;;;;;63.00;27.43;;;;;;;;;;5119935;27;20459;-74
2020/12/13 06:58:55;;;;;;;68.33;29.07;;;;;;;;;;5119802;27;20554;-74
2020/12/13 07:01:23;;;;;;;59.30;25.83;;;;;;;;;;5119387;27;20447;-74
2020/12/13 07:03:50;;;;;;;61.80;26.53;;;;;;;;;;5118800;27;20466;-73
2020/12/13 07:06:24;;;;;;;66.30;27.07;;;;;;;;;;5107755;27;20466;-74
2020/12/13 07:08:54;;;;;;;63.20;27.77;;;;;;;;;;5119411;27;20455;-74
2020/12/13 07:11:25;;;;;;;61.87;28.17;;;;;;;;;;5104898;27;20456;-74
2020/12/13 07:13:52;;;;;;;61.27;26.07;;;;;;;;;;5098984;27;20559;-74
2020/12/13 07:16:31;;;;;;;67.77;27.13;;;;;;;;;;5098920;27;20456;-73
2020/12/13 07:19:02;;;;;;;58.90;26.50;;;;;;;;;;5099074;27;20474;-73
2020/12/13 07:21:29;;;;;;;59.60;27.50;;;;;;;;;;5110207;27;20480;-74
2020/12/13 07:23:59;;;;;;;60.17;27.50;;;;;;;;;;5118368;27;20524;-75
2020/12/13 07:26:27;;;;;;;62.73;27.33;;;;;;;;;;5118418;27;20483;-74
2020/12/13 07:28:55;;;;;;;73.10;27.20;;;;;;;;;;5118210;27;20466;-74
2020/12/13 07:31:24;;;;;;;70.93;27.50;;;;;;;;;;5118932;27;20739;-74
2020/12/13 07:33:51;;;;;;;62.47;28.77;;;;;;;;;;5118770;27;20474;-74
2020/12/13 07:36:19;;;;;;;52.93;25.73;;;;;;;;;;5118285;27;20451;-74
2020/12/13 07:38:46;;;;;;;64.10;27.40;;;;;;;;;;5118546;27;20550;-74
2020/12/13 07:41:17;;;;;;;59.50;29.43;;;;;;;;;;5118336;27;20444;-74
2020/12/13 07:43:57;;;;;;;68.90;27.33;;;;;;;;;;5117320;27;20528;-74
2020/12/13 07:46:25;;;;;;;59.00;29.63;;;;;;;;;;5119148;27;20522;-74
2020/12/13 07:49:02;;;;;;;63.80;27.00;;;;;;;;;;5117453;27;20454;-74
2020/12/13 07:51:33;;;;;;;57.43;25.93;;;;;;;;;;5118036;27;20458;-74
2020/12/13 07:54:13;;;;;;;59.43;27.87;;;;;;;;;;5113727;27;20439;-74
2020/12/13 07:56:41;;;;;;;66.60;28.30;;;;;;;;;;5117396;27;20444;-73
2020/12/13 07:59:09;;;;;;;61.20;27.97;;;;;;;;;;5117140;27;20882;-72
2020/12/13 08:01:39;;;;;;;65.93;25.60;;;;;;;;;;5117187;27;20813;-74
2020/12/13 08:04:10;;;;;;;54.17;25.93;;;;;;;;;;5115849;27;20459;-74
2020/12/13 08:06:44;;;;;;;60.07;27.90;;;;;;;;;;5116132;27;20774;-74
2020/12/13 08:09:14;;;;;;;54.43;24.87;;;;;;;;;;5117154;27;20766;-74
2020/12/13 08:11:42;;;;;;;60.37;27.80;;;;;;;;;;5114147;27;20452;-74
2020/12/13 08:14:10;;;;;;;57.43;26.83;;;;;;;;;;5117223;27;20444;-74
2020/12/13 08:16:37;;;;;;;53.43;25.20;;;;;;;;;;5116586;27;20669;-74
2020/12/13 08:19:14;;;;;;;56.47;25.00;;;;;;;;;;5098073;27;20460;-75
2020/12/13 08:21:45;;;;;;;56.37;24.90;;;;;;;;;;5098436;27;20455;-74
2020/12/13 08:24:14;;;;;;;56.93;26.77;;;;;;;;;;5098399;27;20460;-74
2020/12/13 08:26:49;;;;;;;58.70;28.00;;;;;;;;;;5104374;27;20478;-74
2020/12/13 08:29:17;;;;;;;63.53;26.57;;;;;;;;;;5109698;27;20511;-74
2020/12/13 08:31:51;;;;;;;56.03;26.30;;;;;;;;;;5117421;27;20439;-74
2020/12/13 08:34:24;;;;;;;56.30;25.90;;;;;;;;;;5117886;27;20463;-74
2020/12/13 08:36:55;;;;;;;64.17;27.80;;;;;;;;;;5113578;27;20455;-74
2020/12/13 08:39:31;;;;;;;62.03;27.37;;;;;;;;;;5097469;27;20452;-73
2020/12/13 08:42:07;;;;;;;58.60;26.33;;;;;;;;;;5097451;27;20448;-75
2020/12/13 08:44:38;;;;;;;63.47;28.80;;;;;;;;;;5097410;27;20550;-74
2020/12/13 08:47:07;;;;;;;66.13;29.47;;;;;;;;;;5097257;27;21018;-74
2020/12/13 08:49:35;;;;;;;55.73;27.00;;;;;;;;;;5098542;27;20759;-74
2020/12/13 08:52:14;;;;;;;60.50;26.50;;;;;;;;;;5097910;27;20453;-74
2020/12/13 08:54:48;;;;;;;61.50;28.40;;;;;;;;;;5096634;27;20863;-74
2020/12/13 08:57:26;;;;;;;55.67;25.87;;;;;;;;;;5096903;27;20709;-75
2020/12/13 09:00:04;;;;;;;59.57;25.20;;;;;;;;;;5097997;27;20707;-74
2020/12/13 09:02:35;;;;;;;63.07;30.57;;;;;;;;;;5114780;27;20520;-75
2020/12/13 09:05:11;;;;;;;67.00;27.90;;;;;;;;;;5117004;27;20479;-75
2020/12/13 09:07:45;;;;;;;52.53;25.70;;;;;;;;;;5116931;27;20542;-74
2020/12/13 09:10:16;;;;;;;67.30;28.27;;;;;;;;;;5111394;27;20459;-75
2020/12/13 09:12:45;;;;;;;71.83;29.03;;;;;;;;;;5097714;28;20778;-74
2020/12/13 09:15:17;;;;;;;72.93;28.97;;;;;;;;;;5096266;28;20525;-74
2020/12/13 09:17:55;;;;;;;69.50;27.73;;;;;;;;;;5096416;28;20471;-74
2020/12/13 09:20:27;;;;;;;60.47;28.70;;;;;;;;;;5096413;28;20444;-74
2020/12/13 09:23:04;;;;;;;63.53;28.33;;;;;;;;;;5096176;28;20452;-74
2020/12/13 09:25:42;;;;;;;59.87;24.93;;;;;;;;;;5098274;27;20482;-75
2020/12/13 09:28:14;;;;;;;58.97;25.33;;;;;;;;;;5101172;27;20715;-75
2020/12/13 09:30:45;;;;;;;58.37;26.40;;;;;;;;;;5115890;27;20512;-74
2020/12/13 09:33:15;;;;;;;67.60;29.00;;;;;;;;;;5117244;27;20549;-74
2020/12/13 09:35:45;;;;;;;63.43;28.73;;;;;;;;;;5116785;27;20785;-75
2020/12/13 09:38:14;;;;;;;74.83;28.47;;;;;;;;;;5117241;27;20879;-74
2020/12/13 09:40:42;;;;;;;63.50;27.60;;;;;;;;;;5102660;27;20913;-74
2020/12/13 09:43:12;;;;;;;65.07;28.73;;;;;;;;;;5107092;28;20490;-75
2020/12/13 09:45:41;;;;;;;73.87;30.90;;;;;;;;;;5115745;27;20518;-74
2020/12/13 09:48:11;;;;;;;73.87;30.37;;;;;;;;;;5115395;27;20582;-74
2020/12/13 09:50:38;;;;;;;62.67;27.77;;;;;;;;;;5116006;27;20758;-74
2020/12/13 09:53:07;;;;;;;62.00;28.43;;;;;;;;;;5117033;27;20482;-75
2020/12/13 09:55:43;;;;;;;68.60;28.70;;;;;;;;;;5116091;27;20451;-74
2020/12/13 09:58:14;;;;;;;77.43;31.50;;;;;;;;;;5111973;27;20531;-74
2020/12/13 10:00:41;;;;;;;76.90;30.37;;;;;;;;;;5095149;28;20526;-74
2020/12/13 10:03:13;;;;;;;66.23;26.03;;;;;;;;;;5107202;28;20855;-75
2020/12/13 10:06:01;;;;;;;74.80;30.00;;;;;;;;;;5114614;28;20981;-75
2020/12/13 10:11:16;;;;;;;68.47;28.87;;;;;;;;;;5097903;28;20426;-74
2020/12/13 10:13:47;;;;;;;64.50;30.53;;;;;;;;;;5107038;28;20487;-75
2020/12/13 10:16:19;;;;;;;61.17;28.40;;;;;;;;;;5118028;27;20503;-74
2020/12/13 10:18:46;;;;;;;70.97;28.83;;;;;;;;;;5119850;27;20601;-74
2020/12/13 10:21:14;;;;;;;62.03;29.60;;;;;;;;;;5098654;28;20483;-74
2020/12/13 10:23:46;;;;;;;68.47;31.37;;;;;;;;;;5099159;28;20709;-75
2020/12/13 10:26:16;;;;;;;71.43;29.20;;;;;;;;;;5098222;28;20515;-75
2020/12/13 10:28:48;;;;;;;67.00;28.43;;;;;;;;;;5105790;27;20454;-75
2020/12/13 10:31:27;;;;;;;56.73;27.23;;;;;;;;;;5119618;27;20464;-74
2020/12/13 10:33:58;;;;;;;59.30;27.60;;;;;;;;;;5118501;27;20465;-75
2020/12/13 10:36:27;;;;;;;66.30;29.30;;;;;;;;;;5107790;28;20471;-75
2020/12/13 10:38:55;;;;;;;64.60;28.80;;;;;;;;;;5099942;28;20475;-75
2020/12/13 10:41:22;;;;;;;59.13;27.70;;;;;;;;;;5119773;27;20450;-74
2020/12/13 10:43:54;;;;;;;67.87;31.27;;;;;;;;;;5118579;27;20965;-74
2020/12/13 10:46:25;;;;;;;58.43;29.60;;;;;;;;;;5114068;27;20486;-73
2020/12/13 10:48:52;;;;;;;59.73;26.60;;;;;;;;;;5120395;27;20533;-73
2020/12/13 10:51:20;;;;;;;57.13;28.97;;;;;;;;;;5119126;27;20435;-73
2020/12/13 10:53:47;;;;;;;69.57;27.60;;;;;;;;;;5119185;27;20467;-74
2020/12/13 10:56:15;;;;;;;64.07;29.73;;;;;;;;;;5119170;27;20451;-73
2020/12/13 10:58:45;;;;;;;58.13;28.70;;;;;;;;;;5119410;27;20785;-74
2020/12/13 11:01:13;;;;;;;65.77;28.50;;;;;;;;;;5118744;27;20596;-74
2020/12/13 11:03:44;;;;;;;61.13;27.40;;;;;;;;;;5117021;27;20597;-74
2020/12/13 11:06:12;;;;;;;61.60;29.70;;;;;;;;;;5099132;28;20480;-74
2020/12/13 11:08:40;;;;;;;58.70;27.27;;;;;;;;;;5098680;28;20521;-74
2020/12/13 11:11:09;;;;;;;62.93;27.10;;;;;;;;;;5098262;28;20452;-73
2020/12/13 11:13:49;;;;;;;;;;;;;;;;;;;;;
2020/12/13 11:16:19;;;;;;;56.83;25.60;;;;;;;;;;5098221;28;20436;-75
2020/12/13 11:18:46;;;;;;;66.27;27.07;;;;;;;;;;5110822;27;20877;-74
2020/12/13 11:21:13;;;;;;;68.90;29.07;;;;;;;;;;5118713;27;20527;-74
2020/12/13 11:23:41;;;;;;;57.70;28.80;;;;;;;;;;5118300;27;20466;-74
2020/12/13 11:26:08;;;;;;;48.67;24.30;;;;;;;;;;5119274;27;20483;-74
2020/12/13 11:28:35;;;;;;;60.17;27.77;;;;;;;;;;5117789;27;20473;-73
2020/12/13 11:31:03;;;;;;;55.97;25.67;;;;;;;;;;5104207;27;20475;-75
2020/12/13 11:33:30;;;;;;;55.43;25.97;;;;;;;;;;5097850;28;20991;-73
2020/12/13 11:35:59;;;;;;;58.30;26.27;;;;;;;;;;5097443;28;20452;-74
2020/12/13 11:38:26;;;;;;;54.60;27.10;;;;;;;;;;5096523;28;20591;-73
2020/12/13 11:40:55;;;;;;;51.10;24.60;;;;;;;;;;5097884;28;20457;-75
2020/12/13 11:43:26;;;;;;;55.03;26.00;;;;;;;;;;5098778;28;20543;-75
2020/12/13 11:46:04;;;;;;;48.43;25.47;;;;;;;;;;5097640;28;20509;-75
2020/12/13 11:49:01;;;;;;;59.37;26.77;;;;;;;;;;5095916;28;20516;-73
2020/12/13 11:51:31;;;;;;;63.23;25.70;;;;;;;;;;5090976;28;20479;-75
2020/12/13 11:54:07;;;;;;;57.60;28.10;;;;;;;;;;5098370;28;20459;-74
2020/12/13 11:56:39;;;;;;;53.50;25.47;;;;;;;;;;5097823;28;20455;-74
2020/12/13 11:59:14;;;;;;;58.67;27.00;;;;;;;;;;5097296;28;20867;-74
2020/12/13 12:01:57;;;;;;;46.13;22.67;;;;;;;;;;5097791;28;20887;-74
2020/12/13 12:04:24;;;;;;;48.73;22.97;;;;;;;;;;5097720;28;20452;-74
2020/12/13 12:07:03;;;;;;;46.07;23.43;;;;;;;;;;5108099;27;20621;-74
2020/12/13 12:09:46;;;;;;;56.60;26.57;;;;;;;;;;5117571;27;20461;-73
2020/12/13 12:12:15;;;;;;;44.20;21.97;;;;;;;;;;5116011;27;20910;-74
2020/12/13 12:14:52;;;;;;;45.07;26.10;;;;;;;;;;5117896;27;20556;-72
2020/12/13 12:17:34;;;;;;;52.40;24.20;;;;;;;;;;5117120;28;20479;-74
2020/12/13 12:20:08;;;;;;;46.03;23.67;;;;;;;;;;5117168;28;20508;-74
2020/12/13 12:22:38;;;;;;;50.53;24.83;;;;;;;;;;5097843;28;20455;-74
2020/12/13 12:25:13;;;;;;;46.03;23.27;;;;;;;;;;5098808;28;20484;-74
2020/12/13 12:27:45;;;;;;;49.33;25.00;;;;;;;;;;5097357;28;20459;-74
2020/12/13 12:30:13;;;;;;;47.20;22.07;;;;;;;;;;5097289;27;20505;-73
2020/12/13 12:32:47;;;;;;;44.27;25.30;;;;;;;;;;5106119;28;20540;-74
2020/12/13 12:38:25;;;;;;;43.20;21.37;;;;;;;;;;5094765;28;20432;-74
2020/12/13 12:40:56;;;;;;;47.37;23.87;;;;;;;;;;5101965;28;20472;-73
2020/12/13 12:43:25;;;;;;;49.47;23.70;;;;;;;;;;5106689;28;20534;-73
2020/12/13 12:45:53;;;;;;;50.97;21.83;;;;;;;;;;5103858;27;20494;-73
2020/12/13 12:48:20;;;;;;;45.87;24.13;;;;;;;;;;5106791;27;20447;-73
2020/12/13 12:51:00;;;;;;;;;;;;;;;;;;;;;
2020/12/13 12:53:30;;;;;;;46.67;20.97;;;;;;;;;;5098937;28;20443;-73
2020/12/13 12:56:00;;;;;;;47.23;24.97;;;;;;;;;;5096486;28;20479;-73
2020/12/13 12:58:36;;;;;;;70.13;33.00;;;;;;;;;;5096766;28;20546;-72
2020/12/13 13:01:16;;;;;;;47.80;27.07;;;;;;;;;;5099499;28;20455;-73
2020/12/13 13:03:57;;;;;;;50.97;25.07;;;;;;;;;;5115775;28;20463;-73
2020/12/13 13:06:53;;;;;;;55.27;25.67;;;;;;;;;;5110860;27;20485;-73
2020/12/13 13:09:58;;;;;;;49.00;23.67;;;;;;;;;;5106462;28;20452;-74
2020/12/13 13:17:51;;;;;;;47.20;23.40;;;;;;;;;;5108899;27;20490;-74
2020/12/13 13:20:19;;;;;;;47.30;23.43;;;;;;;;;;5099119;28;21220;-74
2020/12/13 13:23:07;;;;;;;42.20;21.90;;;;;;;;;;5108479;27;20459;-72
2020/12/13 13:26:10;;;;;;;44.70;25.47;;;;;;;;;;5107782;27;20511;-72
2020/12/13 13:34:49;;;;;;;44.47;23.70;;;;;;;;;;5113370;27;20443;-73
2020/12/13 13:37:18;;;;;;;45.13;26.70;;;;;;;;;;5114917;27;20715;-73
2020/12/13 13:39:52;;;;;;;50.47;23.83;;;;;;;;;;5116788;27;20446;-75
2020/12/13 13:42:23;;;;;;;49.17;24.47;;;;;;;;;;5112962;27;20463;-73
2020/12/13 13:44:56;;;;;;;43.80;20.50;;;;;;;;;;5112291;27;20482;-74
2020/12/13 13:47:32;;;;;;;48.00;25.03;;;;;;;;;;5111291;27;20939;-73
2020/12/13 13:50:03;;;;;;;51.97;23.57;;;;;;;;;;5118784;27;20470;-74
2020/12/13 13:52:38;;;;;;;55.20;23.07;;;;;;;;;;5117027;27;20473;-75
2020/12/13 13:55:12;;;;;;;57.33;24.60;;;;;;;;;;5100219;28;20464;-73
2020/12/13 13:57:46;;;;;;;48.63;23.57;;;;;;;;;;5114662;27;20535;-74
2020/12/13 14:00:21;;;;;;;53.63;24.90;;;;;;;;;;5104314;27;20455;-74
2020/12/13 14:02:48;;;;;;;50.97;24.07;;;;;;;;;;5135988;27;20498;-73
2020/12/13 14:05:37;;;;;;;60.67;26.13;;;;;;;;;;5114943;28;20523;-73
2020/12/13 14:08:25;;;;;;;60.33;26.63;;;;;;;;;;5116061;27;20466;-72
2020/12/13 14:11:26;;;;;;;59.20;25.30;;;;;;;;;;5117372;27;20875;-75
2020/12/13 14:14:06;;;;;;;62.00;26.40;;;;;;;;;;5098062;28;20511;-74
2020/12/13 14:16:38;;;;;;;59.50;24.83;;;;;;;;;;5103593;27;20447;-74
2020/12/13 14:19:08;;;;;;;61.03;25.67;;;;;;;;;;5110607;28;20528;-74
2020/12/13 14:21:36;;;;;;;59.53;25.23;;;;;;;;;;5099137;27;20456;-73
2020/12/13 14:24:03;;;;;;;55.87;26.53;;;;;;;;;;5113373;27;20455;-74
2020/12/13 14:26:30;;;;;;;61.67;27.13;;;;;;;;;;5099849;27;20495;-73
2020/12/13 14:28:58;;;;;;;53.70;26.53;;;;;;;;;;5097784;28;20878;-74
2020/12/13 14:31:29;;;;;;;59.90;25.93;;;;;;;;;;5101584;28;20579;-75
2020/12/13 14:33:59;;;;;;;56.80;26.07;;;;;;;;;;5097405;28;20552;-74
2020/12/13 14:36:27;;;;;;;60.57;25.80;;;;;;;;;;5101272;28;20447;-74
2020/12/13 14:38:56;;;;;;;69.30;28.90;;;;;;;;;;5104232;27;20500;-74
2020/12/13 14:41:33;;;;;;;55.93;27.33;;;;;;;;;;5098170;28;20440;-75
2020/12/13 14:44:05;;;;;;;65.57;28.00;;;;;;;;;;5098455;28;20459;-75
2020/12/13 14:46:35;;;;;;;72.03;28.17;;;;;;;;;;5101239;28;20812;-74
2020/12/13 14:49:18;;;;;;;67.03;27.57;;;;;;;;;;5102462;28;20908;-74
2020/12/13 14:51:50;;;;;;;69.60;27.80;;;;;;;;;;5101736;28;20463;-74
2020/12/13 14:54:24;;;;;;;70.20;28.27;;;;;;;;;;5105330;27;20462;-74
2020/12/13 14:56:51;;;;;;;67.67;27.00;;;;;;;;;;5103904;27;20470;-75
2020/12/13 14:59:26;;;;;;;63.90;29.53;;;;;;;;;;5115751;27;20496;-75
2020/12/13 15:01:59;;;;;;;77.33;31.00;;;;;;;;;;5102290;27;20607;-74
2020/12/13 15:04:29;;;;;;;72.50;33.17;;;;;;;;;;5117939;27;20447;-74